Time;durP1;ratioP1;P1;durP2;ratioP2;P2;SDS_P1;SDS_P2;PMS_P1;PMS_P2;Temp;Humidity;BMP_temperature;BMP_pressure;BME280_temperature;BME280_humidity;BME280_pressure;Samples;Min_cycle;Max_cycle;Signal;HPM_P1;HPM_P2
2023/12/03 00:00:03;;;;;;;37.55;16.77;;;-2.30;99.90;;;;;;5080421;28;20178;-54
2023/12/03 00:02:29;;;;;;;35.63;16.02;;;-2.30;99.90;;;;;;5073405;28;20745;-56
2023/12/03 00:04:55;;;;;;;34.97;16.92;;;-2.30;99.90;;;;;;5079350;28;20056;-60
2023/12/03 00:07:22;;;;;;;37.85;16.10;;;-2.30;99.90;;;;;;5079844;28;20067;-52
2023/12/03 00:09:48;;;;;;;31.85;14.57;;;-2.30;99.90;;;;;;5084993;28;20039;-53
2023/12/03 00:12:14;;;;;;;37.60;16.42;;;-2.30;99.90;;;;;;5080249;28;20040;-55
2023/12/03 00:14:39;;;;;;;32.28;14.90;;;-2.30;99.90;;;;;;5082524;28;20519;-55
2023/12/03 00:17:05;;;;;;;29.92;14.93;;;-2.30;99.90;;;;;;5070661;28;20040;-57
2023/12/03 00:19:31;;;;;;;34.55;15.77;;;-2.30;99.90;;;;;;5065054;28;20435;-55
2023/12/03 00:21:56;;;;;;;30.17;14.02;;;-2.30;99.90;;;;;;5065997;28;20048;-57
2023/12/03 00:24:22;;;;;;;33.45;15.07;;;-2.30;99.90;;;;;;5066861;28;20105;-60
2023/12/03 00:26:48;;;;;;;33.42;14.88;;;-2.30;99.90;;;;;;5067935;28;20675;-60
2023/12/03 00:29:14;;;;;;;34.75;15.23;;;-2.20;99.90;;;;;;5071292;28;20554;-58
2023/12/03 00:31:40;;;;;;;31.30;14.90;;;-2.30;99.90;;;;;;5050391;28;20569;-57
2023/12/03 00:34:06;;;;;;;30.35;13.15;;;-2.20;99.90;;;;;;5045889;28;20068;-57
2023/12/03 00:36:32;;;;;;;29.33;14.15;;;-2.20;99.90;;;;;;5041168;28;20713;-56
2023/12/03 00:38:58;;;;;;;34.47;14.70;;;-2.10;99.90;;;;;;5038774;28;20037;-57
2023/12/03 00:41:24;;;;;;;29.08;14.32;;;-2.10;99.90;;;;;;5047094;28;20041;-57
2023/12/03 00:43:49;;;;;;;34.20;15.15;;;-2.00;99.90;;;;;;5045503;28;20040;-57
2023/12/03 00:46:19;;;;;;;31.17;13.57;;;-2.00;99.90;;;;;;5046126;28;20049;-58
2023/12/03 00:48:45;;;;;;;32.85;14.43;;;-1.90;99.90;;;;;;5051389;28;20048;-59
2023/12/03 00:51:11;;;;;;;25.20;11.80;;;-1.90;99.90;;;;;;5041600;28;23587;-58
2023/12/03 00:53:37;;;;;;;34.03;14.05;;;-1.90;99.90;;;;;;5046516;28;20056;-54
2023/12/03 00:56:03;;;;;;;24.63;12.82;;;-1.80;99.90;;;;;;5046260;28;20041;-61
2023/12/03 00:58:28;;;;;;;28.88;13.20;;;-1.80;99.90;;;;;;5045824;28;20048;-59
2023/12/03 01:00:54;;;;;;;27.42;12.27;;;-1.80;99.90;;;;;;5043083;28;20102;-53
2023/12/03 01:03:19;;;;;;;30.10;14.10;;;-1.80;99.90;;;;;;5046564;28;20079;-58
2023/12/03 01:05:45;;;;;;;27.13;13.30;;;-1.80;99.90;;;;;;5047091;28;20454;-54
2023/12/03 01:08:10;;;;;;;35.10;14.48;;;-1.80;99.90;;;;;;5046313;28;20037;-56
2023/12/03 01:10:36;;;;;;;30.35;13.10;;;-1.70;99.90;;;;;;5047398;28;20830;-53
2023/12/03 01:13:02;;;;;;;31.83;14.70;;;-1.70;99.90;;;;;;5050006;28;20127;-54
2023/12/03 01:15:27;;;;;;;27.38;13.10;;;-1.70;99.90;;;;;;5047725;28;20566;-54
2023/12/03 01:17:53;;;;;;;28.95;13.80;;;-1.70;99.90;;;;;;5045876;28;20044;-60
2023/12/03 01:20:18;;;;;;;34.20;14.18;;;-1.70;99.90;;;;;;5041827;28;20037;-57
2023/12/03 01:22:44;;;;;;;31.52;13.63;;;-1.70;99.90;;;;;;5035982;28;20092;-58
2023/12/03 01:25:10;;;;;;;31.77;14.73;;;-1.70;99.90;;;;;;5047378;28;20099;-59
2023/12/03 01:27:36;;;;;;;38.33;14.65;;;-1.70;99.90;;;;;;5042493;28;20048;-51
2023/12/03 01:30:01;;;;;;;32.13;14.60;;;-1.80;99.90;;;;;;5049886;28;20120;-55
2023/12/03 01:32:27;;;;;;;30.20;13.98;;;-1.80;99.90;;;;;;5045149;28;20555;-53
2023/12/03 01:34:52;;;;;;;32.13;14.73;;;-1.80;99.90;;;;;;5047787;28;20045;-52
2023/12/03 01:37:18;;;;;;;34.42;14.07;;;-1.80;99.90;;;;;;5050817;28;20129;-50
2023/12/03 01:39:44;;;;;;;38.90;15.25;;;-1.80;99.90;;;;;;5052468;28;20052;-55
2023/12/03 01:42:10;;;;;;;32.83;14.68;;;-1.80;99.90;;;;;;5045861;28;20030;-57
2023/12/03 01:44:35;;;;;;;32.20;14.68;;;-1.80;99.90;;;;;;5047632;28;20048;-58
2023/12/03 01:47:02;;;;;;;31.00;14.55;;;-1.80;99.90;;;;;;5044930;28;20661;-60
2023/12/03 01:49:28;;;;;;;33.08;14.15;;;-1.80;99.90;;;;;;5048173;28;20060;-60
2023/12/03 01:51:53;;;;;;;28.85;13.23;;;-1.80;99.90;;;;;;5049896;28;20075;-58
2023/12/03 01:54:20;;;;;;;33.53;14.40;;;-1.80;99.90;;;;;;5046769;28;20043;-60
2023/12/03 01:56:47;;;;;;;35.10;14.15;;;-1.70;99.90;;;;;;5046535;28;20099;-56
2023/12/03 01:59:13;;;;;;;32.75;13.75;;;-1.70;99.90;;;;;;5045936;28;20036;-53
2023/12/03 02:01:39;;;;;;;27.75;14.23;;;-1.70;99.90;;;;;;5055467;28;20546;-60
2023/12/03 02:04:04;;;;;;;30.83;14.32;;;-1.70;99.90;;;;;;5060653;28;20574;-57
2023/12/03 02:06:30;;;;;;;30.23;14.02;;;-1.70;99.90;;;;;;5062897;28;20068;-55
2023/12/03 02:08:56;;;;;;;32.95;14.40;;;-1.70;99.90;;;;;;5060737;28;20534;-51
2023/12/03 02:11:21;;;;;;;34.17;15.82;;;-1.70;99.90;;;;;;5062608;28;20068;-59
2023/12/03 02:13:48;;;;;;;29.83;14.35;;;-1.70;99.90;;;;;;5060274;28;20037;-59
2023/12/03 02:16:13;;;;;;;30.60;14.02;;;-1.70;99.90;;;;;;5061738;28;20052;-56
2023/12/03 02:18:39;;;;;;;37.63;16.15;;;-1.70;99.90;;;;;;5063113;28;20037;-59
2023/12/03 02:21:05;;;;;;;33.78;15.45;;;-1.60;99.90;;;;;;5060073;28;20396;-57
2023/12/03 02:23:31;;;;;;;37.42;15.60;;;-1.70;99.90;;;;;;5057482;28;20033;-56
2023/12/03 02:25:58;;;;;;;30.48;15.13;;;-1.60;99.90;;;;;;5066391;28;20044;-57
2023/12/03 02:28:23;;;;;;;28.52;13.75;;;-1.70;99.90;;;;;;5057680;28;20445;-52
2023/12/03 02:30:49;;;;;;;31.10;15.20;;;-1.70;99.90;;;;;;5063016;28;20063;-57
2023/12/03 02:33:15;;;;;;;36.72;15.32;;;-1.70;99.90;;;;;;5056909;28;20041;-61
2023/12/03 02:35:40;;;;;;;30.02;14.57;;;-1.70;99.90;;;;;;5059331;28;20046;-60
2023/12/03 02:38:06;;;;;;;33.67;14.35;;;-1.70;99.90;;;;;;5063314;28;20137;-59
2023/12/03 02:40:32;;;;;;;33.58;15.23;;;-1.80;99.90;;;;;;5057432;28;20044;-58
2023/12/03 02:42:59;;;;;;;30.52;14.27;;;-1.80;99.90;;;;;;5062740;28;20515;-61
2023/12/03 02:45:24;;;;;;;33.70;14.55;;;-1.80;99.90;;;;;;5059965;28;20210;-53
2023/12/03 02:47:50;;;;;;;36.75;15.48;;;-1.80;99.90;;;;;;5057128;28;20496;-55
2023/12/03 02:50:15;;;;;;;33.55;13.50;;;-1.80;99.90;;;;;;5064589;28;20112;-53
2023/12/03 02:52:41;;;;;;;31.67;14.32;;;-1.80;99.90;;;;;;5063312;28;20115;-59
2023/12/03 02:55:07;;;;;;;34.17;15.02;;;-1.80;99.90;;;;;;5065786;28;20135;-57
2023/12/03 02:57:34;;;;;;;30.90;14.68;;;-1.70;99.90;;;;;;5064020;28;20042;-59
2023/12/03 03:00:00;;;;;;;32.53;14.25;;;-1.70;99.90;;;;;;5063656;28;20071;-57
2023/12/03 03:02:25;;;;;;;33.72;14.63;;;-1.70;99.90;;;;;;5056284;28;20068;-55
2023/12/03 03:04:51;;;;;;;28.83;13.88;;;-1.70;99.90;;;;;;5065500;28;20407;-57
2023/12/03 03:07:16;;;;;;;28.98;14.15;;;-1.70;99.90;;;;;;5065179;28;20040;-58
2023/12/03 03:09:42;;;;;;;27.30;13.75;;;-1.70;99.90;;;;;;5065061;28;20060;-55
2023/12/03 03:12:08;;;;;;;28.88;12.23;;;-1.70;99.90;;;;;;5065660;28;20093;-53
2023/12/03 03:14:33;;;;;;;28.60;12.43;;;-1.70;99.90;;;;;;5066494;28;20514;-58
2023/12/03 03:17:02;;;;;;;29.15;12.93;;;-1.70;99.90;;;;;;5061601;28;20036;-56
2023/12/03 03:19:27;;;;;;;25.90;11.85;;;-1.80;99.90;;;;;;5063628;28;20562;-58
2023/12/03 03:21:53;;;;;;;28.50;13.73;;;-1.70;99.90;;;;;;5060567;28;20124;-54
2023/12/03 03:24:18;;;;;;;28.83;13.60;;;-1.70;99.90;;;;;;5062129;28;20400;-57
2023/12/03 03:26:44;;;;;;;28.58;13.15;;;-1.70;99.90;;;;;;5063967;28;20041;-57
2023/12/03 03:29:09;;;;;;;26.27;12.93;;;-1.70;99.90;;;;;;5065882;28;20044;-52
2023/12/03 03:31:35;;;;;;;28.13;12.50;;;-1.70;99.90;;;;;;5065182;28;20217;-56
2023/12/03 03:34:01;;;;;;;32.42;12.73;;;-1.70;99.90;;;;;;5065992;28;20506;-53
2023/12/03 03:36:26;;;;;;;26.52;13.15;;;-1.70;99.90;;;;;;5062346;28;20086;-57
2023/12/03 03:38:52;;;;;;;26.23;12.75;;;-1.60;99.90;;;;;;5060782;28;20083;-55
2023/12/03 03:41:17;;;;;;;27.45;13.10;;;-1.60;99.90;;;;;;5062359;28;20033;-58
2023/12/03 03:43:43;;;;;;;27.75;13.00;;;-1.60;99.90;;;;;;5062860;28;20047;-53
2023/12/03 03:46:11;;;;;;;26.00;12.35;;;-1.60;99.90;;;;;;5061983;28;20037;-56
2023/12/03 03:48:37;;;;;;;24.15;12.48;;;-1.60;99.90;;;;;;5057025;28;20039;-53
2023/12/03 03:51:05;;;;;;;30.48;13.45;;;-1.60;99.90;;;;;;5062792;28;20029;-52
2023/12/03 03:53:30;;;;;;;30.23;14.25;;;-1.60;99.90;;;;;;5063326;28;20536;-53
2023/12/03 03:55:56;;;;;;;29.75;14.45;;;-1.60;99.90;;;;;;5069622;28;20171;-55
2023/12/03 03:58:21;;;;;;;30.05;13.55;;;-1.70;99.90;;;;;;5066066;28;20040;-55
2023/12/03 04:00:47;;;;;;;29.42;13.63;;;-1.70;99.90;;;;;;5062995;28;20049;-57
2023/12/03 04:03:12;;;;;;;26.70;13.32;;;-1.70;99.90;;;;;;5073225;28;20055;-55
2023/12/03 04:05:38;;;;;;;28.50;13.90;;;-1.80;99.90;;;;;;5065765;28;20044;-59
2023/12/03 04:08:03;;;;;;;30.90;13.15;;;-1.80;99.90;;;;;;5064708;28;20648;-52
2023/12/03 04:10:29;;;;;;;26.27;13.07;;;-1.80;99.90;;;;;;5069168;28;20028;-59
2023/12/03 04:12:56;;;;;;;28.83;13.05;;;-1.80;99.90;;;;;;5067848;28;20128;-56
2023/12/03 04:15:21;;;;;;;27.10;13.13;;;-1.90;99.90;;;;;;5060685;28;20046;-59
2023/12/03 04:17:47;;;;;;;31.45;13.45;;;-1.80;99.90;;;;;;5063015;28;20029;-57
2023/12/03 04:20:13;;;;;;;30.73;14.77;;;-1.80;99.90;;;;;;5065358;28;20033;-52
2023/12/03 04:22:38;;;;;;;31.10;14.30;;;-1.90;99.90;;;;;;5065316;28;20468;-56
2023/12/03 04:25:04;;;;;;;30.15;15.05;;;-1.90;99.90;;;;;;5065910;28;20044;-55
2023/12/03 04:27:31;;;;;;;33.05;14.23;;;-1.90;99.90;;;;;;5063964;28;20432;-56
2023/12/03 04:29:56;;;;;;;33.45;15.35;;;-1.90;99.90;;;;;;5062653;28;20036;-53
2023/12/03 04:32:22;;;;;;;31.65;15.05;;;-1.90;99.90;;;;;;5066078;28;20094;-56
2023/12/03 04:34:47;;;;;;;33.80;15.68;;;-1.90;99.90;;;;;;5068836;28;20032;-58
2023/12/03 04:37:13;;;;;;;30.95;14.77;;;-2.00;99.90;;;;;;5061213;28;20102;-57
2023/12/03 04:39:38;;;;;;;29.55;14.30;;;-2.00;99.90;;;;;;5066884;28;20032;-56
2023/12/03 04:42:04;;;;;;;29.02;14.50;;;-2.00;99.90;;;;;;5065690;28;20036;-56
2023/12/03 04:44:33;;;;;;;30.70;14.93;;;-2.10;99.90;;;;;;5060127;28;20695;-56
2023/12/03 04:46:59;;;;;;;42.03;15.77;;;-2.10;99.90;;;;;;5063876;28;20056;-55
2023/12/03 04:49:25;;;;;;;28.00;14.35;;;-2.20;99.90;;;;;;5065798;28;20052;-52
2023/12/03 04:51:50;;;;;;;34.22;15.07;;;-2.20;99.90;;;;;;5063312;28;20060;-57
2023/12/03 04:54:16;;;;;;;33.92;15.85;;;-2.20;99.90;;;;;;5059366;28;20036;-57
2023/12/03 04:56:41;;;;;;;33.47;15.07;;;-2.20;99.90;;;;;;5064592;28;20504;-58
2023/12/03 04:59:07;;;;;;;32.65;14.88;;;-2.20;99.90;;;;;;5065286;28;20543;-55
2023/12/03 05:01:33;;;;;;;31.88;15.18;;;-2.20;99.90;;;;;;5048455;28;20060;-60
2023/12/03 05:03:58;;;;;;;39.80;15.38;;;-2.20;99.90;;;;;;5042288;28;20468;-58
2023/12/03 05:06:24;;;;;;;34.17;14.38;;;-2.20;99.90;;;;;;5048192;28;20140;-60
2023/12/03 05:08:50;;;;;;;26.67;14.23;;;-2.20;99.90;;;;;;5040967;28;20037;-51
2023/12/03 05:11:16;;;;;;;30.65;14.75;;;-2.20;99.90;;;;;;5042361;28;20420;-60
2023/12/03 05:13:42;;;;;;;29.55;14.32;;;-2.10;99.90;;;;;;5040869;28;20489;-57
2023/12/03 05:16:08;;;;;;;30.73;13.68;;;-2.20;99.90;;;;;;5045729;28;20132;-59
2023/12/03 05:18:33;;;;;;;31.30;14.65;;;-2.10;99.90;;;;;;5041192;28;20040;-59
2023/12/03 05:20:59;;;;;;;28.73;13.98;;;-2.00;99.90;;;;;;5045636;28;20076;-55
2023/12/03 05:23:25;;;;;;;31.05;15.15;;;-2.00;99.90;;;;;;5042851;28;20037;-59
2023/12/03 05:25:51;;;;;;;28.33;13.73;;;-2.00;99.90;;;;;;5045413;28;20106;-59
2023/12/03 05:28:17;;;;;;;30.60;13.80;;;-1.90;99.90;;;;;;5042857;28;20103;-56
2023/12/03 05:30:43;;;;;;;33.58;14.55;;;-1.90;99.90;;;;;;5046457;28;20032;-59
2023/12/03 05:33:08;;;;;;;28.30;13.23;;;-1.90;99.90;;;;;;5042948;28;20306;-52
2023/12/03 05:35:34;;;;;;;34.67;15.60;;;-1.80;99.90;;;;;;5047556;28;20037;-58
2023/12/03 05:37:59;;;;;;;30.35;13.93;;;-1.80;99.90;;;;;;5043184;28;20021;-57
2023/12/03 05:40:25;;;;;;;32.55;13.50;;;-1.80;99.90;;;;;;5045993;28;20044;-54
2023/12/03 05:42:51;;;;;;;32.63;14.75;;;-1.70;99.90;;;;;;5041359;28;20040;-55
2023/12/03 05:45:16;;;;;;;31.27;14.05;;;-1.70;99.90;;;;;;5047097;28;20037;-57
2023/12/03 05:47:42;;;;;;;28.45;13.00;;;-1.70;99.90;;;;;;5042568;28;20037;-50
2023/12/03 05:50:08;;;;;;;31.45;14.02;;;-1.70;99.90;;;;;;5047713;28;20036;-49
2023/12/03 05:52:33;;;;;;;29.67;14.40;;;-1.60;99.90;;;;;;5039909;28;20513;-58
2023/12/03 05:54:59;;;;;;;25.00;12.65;;;-1.60;99.90;;;;;;5044323;28;20033;-57
2023/12/03 05:57:25;;;;;;;29.40;13.65;;;-1.60;99.90;;;;;;5047351;28;20688;-56
2023/12/03 05:59:52;;;;;;;26.20;12.45;;;-1.60;99.90;;;;;;5040553;28;20107;-54
2023/12/03 06:02:17;;;;;;;30.77;13.70;;;-1.50;99.90;;;;;;5056696;28;20042;-58
2023/12/03 06:04:43;;;;;;;28.48;13.60;;;-1.50;99.90;;;;;;5045000;28;20033;-59
2023/12/03 06:07:09;;;;;;;24.75;12.02;;;-1.50;99.90;;;;;;5045867;28;20041;-56
2023/12/03 06:09:35;;;;;;;29.13;13.85;;;-1.50;99.90;;;;;;5041666;28;20607;-56
2023/12/03 06:12:00;;;;;;;29.63;13.77;;;-1.50;99.90;;;;;;5044150;28;20889;-58
2023/12/03 06:14:26;;;;;;;30.60;13.05;;;-1.50;99.90;;;;;;5043943;28;20037;-57
2023/12/03 06:16:52;;;;;;;24.88;12.55;;;-1.50;99.90;;;;;;5044965;28;20047;-56
2023/12/03 06:19:17;;;;;;;27.48;13.07;;;-1.50;99.90;;;;;;5038039;28;20043;-57
2023/12/03 06:21:43;;;;;;;26.88;13.45;;;-1.50;99.90;;;;;;5045763;28;20424;-58
2023/12/03 06:24:09;;;;;;;27.85;13.10;;;-1.40;99.90;;;;;;5042156;28;20501;-58
2023/12/03 06:26:34;;;;;;;29.98;12.55;;;-1.50;99.90;;;;;;5044470;28;20048;-56
2023/12/03 06:29:00;;;;;;;24.92;12.38;;;-1.40;99.90;;;;;;5041611;28;20036;-60
2023/12/03 06:31:27;;;;;;;25.90;12.32;;;-1.40;99.90;;;;;;5045926;28;20072;-52
2023/12/03 06:33:53;;;;;;;26.10;12.85;;;-1.30;99.90;;;;;;5052174;28;20141;-55
2023/12/03 06:36:19;;;;;;;25.15;12.20;;;-1.40;99.90;;;;;;5047018;28;20501;-59
2023/12/03 06:38:44;;;;;;;24.80;12.27;;;-1.30;99.90;;;;;;5045446;28;20643;-52
2023/12/03 06:41:10;;;;;;;27.40;13.48;;;-1.30;99.90;;;;;;5045868;28;20436;-52
2023/12/03 06:43:35;;;;;;;29.23;13.02;;;-1.30;99.90;;;;;;5045908;28;20122;-56
2023/12/03 06:46:01;;;;;;;24.50;11.57;;;-1.40;99.90;;;;;;5046509;28;20044;-58
2023/12/03 06:48:27;;;;;;;28.23;13.45;;;-1.30;99.90;;;;;;5049700;28;20068;-55
2023/12/03 06:50:52;;;;;;;29.75;14.02;;;-1.30;99.90;;;;;;5046703;28;20080;-59
2023/12/03 06:53:18;;;;;;;25.88;11.80;;;-1.30;99.90;;;;;;5050637;28;20052;-58
2023/12/03 06:55:44;;;;;;;26.83;12.45;;;-1.30;99.90;;;;;;5045194;28;20108;-54
2023/12/03 06:58:09;;;;;;;23.10;11.57;;;-1.30;99.90;;;;;;5050307;28;20032;-58
2023/12/03 07:00:35;;;;;;;25.58;13.05;;;-1.30;99.90;;;;;;5048023;28;20044;-59
2023/12/03 07:03:00;;;;;;;23.60;11.93;;;-1.30;99.90;;;;;;5065868;28;20039;-55
2023/12/03 07:05:26;;;;;;;24.33;11.30;;;-1.30;99.90;;;;;;5065332;28;20053;-52
2023/12/03 07:07:52;;;;;;;22.38;10.50;;;-1.30;99.90;;;;;;5065342;28;20400;-51
2023/12/03 07:10:18;;;;;;;24.10;11.02;;;-1.20;99.90;;;;;;5065174;28;20511;-58
2023/12/03 07:12:44;;;;;;;23.27;11.40;;;-1.20;99.90;;;;;;5065463;28;20048;-53
2023/12/03 07:15:10;;;;;;;26.20;11.60;;;-1.20;99.90;;;;;;5067304;28;20033;-54
2023/12/03 07:17:35;;;;;;;23.15;10.70;;;-1.20;99.90;;;;;;5064623;28;20041;-55
2023/12/03 07:20:01;;;;;;;25.20;11.13;;;-1.20;99.90;;;;;;5064852;28;20626;-55
2023/12/03 07:22:27;;;;;;;21.83;10.52;;;-1.10;99.90;;;;;;5065003;28;20404;-56
2023/12/03 07:24:53;;;;;;;23.85;11.57;;;-1.10;99.90;;;;;;5063753;28;20032;-60
2023/12/03 07:27:19;;;;;;;20.77;10.38;;;-1.10;99.90;;;;;;5066390;28;20051;-56
2023/12/03 07:29:45;;;;;;;23.88;10.10;;;-1.10;99.90;;;;;;5067058;28;20131;-56
2023/12/03 07:32:10;;;;;;;19.80;10.05;;;-1.10;99.90;;;;;;5067685;28;20032;-57
2023/12/03 07:34:36;;;;;;;19.77;9.30;;;-1.10;99.90;;;;;;5065855;28;20063;-57
2023/12/03 07:37:05;;;;;;;19.63;9.13;;;-1.00;99.90;;;;;;5067060;28;20052;-57
2023/12/03 07:39:30;;;;;;;21.98;10.60;;;-1.00;99.90;;;;;;5067391;28;20047;-58
2023/12/03 07:41:56;;;;;;;21.08;9.68;;;-1.00;99.90;;;;;;5068651;28;20033;-60
2023/12/03 07:44:22;;;;;;;17.83;8.13;;;-1.00;99.90;;;;;;5068895;28;20500;-52
2023/12/03 07:46:49;;;;;;;19.25;8.77;;;-1.00;99.90;;;;;;5069344;28;20139;-58
2023/12/03 07:49:14;;;;;;;19.38;8.25;;;-0.90;99.90;;;;;;5067362;28;20067;-51
2023/12/03 07:51:40;;;;;;;18.52;8.88;;;-0.90;99.90;;;;;;5067483;28;20070;-55
2023/12/03 07:54:05;;;;;;;17.60;8.50;;;-0.80;99.90;;;;;;5068642;28;20038;-52
2023/12/03 07:56:38;;;;;;;17.95;8.85;;;-0.80;99.90;;;;;;5062221;28;20469;-55
2023/12/03 07:59:04;;;;;;;17.38;7.60;;;-0.80;99.90;;;;;;5063695;28;22293;-60
2023/12/03 08:01:30;;;;;;;17.50;8.25;;;-0.70;99.90;;;;;;5064797;28;20033;-57
2023/12/03 08:03:56;;;;;;;18.75;8.75;;;-0.70;99.90;;;;;;5067505;28;20029;-60
2023/12/03 08:06:22;;;;;;;14.13;6.80;;;-0.70;99.90;;;;;;5069062;28;20044;-61
2023/12/03 08:08:48;;;;;;;16.25;7.88;;;-0.70;99.90;;;;;;5066706;28;20044;-52
2023/12/03 08:11:13;;;;;;;16.30;7.70;;;-0.70;99.90;;;;;;5062609;28;20033;-55
2023/12/03 08:13:39;;;;;;;16.65;6.82;;;-0.60;99.90;;;;;;5068824;28;20082;-59
2023/12/03 08:16:05;;;;;;;13.40;6.68;;;-0.60;99.90;;;;;;5069510;28;20078;-60
2023/12/03 08:18:32;;;;;;;13.52;6.35;;;-0.60;99.90;;;;;;5064629;28;20048;-60
2023/12/03 08:20:58;;;;;;;13.02;6.75;;;-0.60;99.90;;;;;;5062427;28;20044;-56
2023/12/03 08:23:24;;;;;;;14.70;6.80;;;-0.60;99.90;;;;;;5061746;28;20045;-57
2023/12/03 08:25:50;;;;;;;15.32;7.03;;;-0.50;99.90;;;;;;5066962;28;20044;-59
2023/12/03 08:28:16;;;;;;;15.02;7.28;;;-0.50;99.90;;;;;;5066088;28;20040;-57
2023/12/03 08:30:42;;;;;;;14.25;6.70;;;-0.50;99.90;;;;;;5067726;28;20032;-57
2023/12/03 08:33:07;;;;;;;15.68;7.05;;;-0.50;99.90;;;;;;5068986;28;20047;-53
2023/12/03 08:35:33;;;;;;;15.43;6.65;;;-0.50;99.90;;;;;;5061452;28;20041;-55
2023/12/03 08:37:59;;;;;;;16.30;6.88;;;-0.40;99.90;;;;;;5067586;28;20487;-54
2023/12/03 08:40:24;;;;;;;15.45;6.50;;;-0.40;99.90;;;;;;5066765;28;20044;-59
2023/12/03 08:42:50;;;;;;;12.15;6.05;;;-0.40;99.90;;;;;;5067693;28;20029;-57
2023/12/03 08:45:16;;;;;;;13.32;6.22;;;-0.30;99.90;;;;;;5065843;28;20066;-56
2023/12/03 08:47:41;;;;;;;12.68;6.55;;;-0.30;99.90;;;;;;5066652;28;20048;-59
2023/12/03 08:50:08;;;;;;;10.98;5.63;;;-0.30;99.90;;;;;;5061513;28;20040;-52
2023/12/03 08:52:33;;;;;;;11.80;5.80;;;-0.20;99.90;;;;;;5067702;28;20067;-61
2023/12/03 08:55:00;;;;;;;9.63;5.40;;;-0.20;99.90;;;;;;5062929;28;20118;-63
2023/12/03 08:57:26;;;;;;;12.68;6.07;;;-0.20;99.90;;;;;;5066557;28;20553;-61
2023/12/03 08:59:55;;;;;;;10.55;5.30;;;-0.20;99.90;;;;;;5065657;28;20040;-62
2023/12/03 09:02:20;;;;;;;10.10;4.80;;;-0.20;99.90;;;;;;5044072;28;20043;-60
2023/12/03 09:04:46;;;;;;;14.15;6.13;;;-0.20;99.90;;;;;;5047572;28;20040;-59
2023/12/03 09:07:12;;;;;;;9.88;5.18;;;-0.20;99.90;;;;;;5047115;28;20171;-53
2023/12/03 09:09:39;;;;;;;10.00;5.05;;;-0.10;99.90;;;;;;5047050;28;20091;-59
2023/12/03 09:12:05;;;;;;;10.13;4.70;;;-0.10;99.90;;;;;;5038693;28;20053;-58
2023/12/03 09:14:31;;;;;;;10.23;4.75;;;0.00;99.90;;;;;;5049015;28;20048;-57
2023/12/03 09:16:58;;;;;;;8.70;4.43;;;0.00;99.90;;;;;;5045088;28;20049;-62
2023/12/03 09:19:24;;;;;;;6.80;4.38;;;0.00;99.90;;;;;;5047303;28;20099;-60
2023/12/03 09:21:50;;;;;;;8.77;4.43;;;0.00;99.90;;;;;;5046773;28;20194;-59
2023/12/03 09:24:16;;;;;;;7.35;3.97;;;-0.10;99.90;;;;;;5045989;28;20556;-61
2023/12/03 09:26:44;;;;;;;7.43;4.43;;;-0.10;99.90;;;;;;5047113;28;20160;-61
2023/12/03 09:29:13;;;;;;;8.45;5.00;;;0.00;99.90;;;;;;5044839;28;20489;-57
2023/12/03 09:31:39;;;;;;;10.13;4.55;;;0.00;99.90;;;;;;5038815;28;20044;-60
2023/12/03 09:34:06;;;;;;;8.93;5.03;;;0.00;99.90;;;;;;5046842;28;20029;-61
2023/12/03 09:36:31;;;;;;;12.80;5.78;;;0.10;99.90;;;;;;5048023;28;20123;-61
2023/12/03 09:38:57;;;;;;;7.60;4.38;;;0.10;99.90;;;;;;5046217;28;20112;-60
2023/12/03 09:41:24;;;;;;;8.20;4.30;;;0.00;99.90;;;;;;5048095;28;20049;-58
2023/12/03 09:43:55;;;;;;;8.95;4.65;;;0.00;99.90;;;;;;5046662;28;20041;-58
2023/12/03 09:46:23;;;;;;;10.10;5.70;;;0.00;99.90;;;;;;5047018;28;20045;-60
2023/12/03 09:48:50;;;;;;;9.07;4.93;;;0.20;99.90;;;;;;5046196;28;20043;-55
2023/12/03 09:51:18;;;;;;;8.18;4.88;;;0.20;99.90;;;;;;5046574;28;20424;-59
2023/12/03 09:53:46;;;;;;;7.75;4.32;;;0.20;99.90;;;;;;5045504;28;20067;-57
2023/12/03 09:56:12;;;;;;;9.18;4.85;;;0.20;99.90;;;;;;5046208;28;20037;-60
2023/12/03 09:58:39;;;;;;;10.20;5.13;;;0.30;99.90;;;;;;5044743;28;20045;-56
2023/12/03 10:01:05;;;;;;;9.27;4.63;;;0.30;99.90;;;;;;5051047;28;20051;-55
2023/12/03 10:03:31;;;;;;;9.32;4.80;;;0.30;99.90;;;;;;5056494;28;20048;-56
2023/12/03 10:05:57;;;;;;;9.02;5.00;;;0.30;99.90;;;;;;5065499;28;20044;-56
2023/12/03 10:08:22;;;;;;;15.35;5.43;;;0.40;99.90;;;;;;5061264;28;20043;-50
2023/12/03 10:10:57;;;;;;;10.90;5.53;;;0.30;99.90;;;;;;5054579;28;20481;-54
2023/12/03 10:13:24;;;;;;;10.70;5.28;;;0.20;99.90;;;;;;5060099;28;20044;-57
2023/12/03 10:15:50;;;;;;;11.15;5.50;;;0.30;99.90;;;;;;5053877;28;20132;-52
2023/12/03 10:18:16;;;;;;;9.15;4.88;;;0.20;99.90;;;;;;5062031;28;20131;-56
2023/12/03 10:20:42;;;;;;;8.73;4.32;;;0.30;99.90;;;;;;5060473;28;20049;-59
2023/12/03 10:23:18;;;;;;;10.57;5.20;;;0.30;99.90;;;;;;5064173;28;20086;-56
2023/12/03 10:25:44;;;;;;;9.70;5.63;;;0.40;99.90;;;;;;5066994;28;20131;-59
2023/12/03 10:28:11;;;;;;;9.70;5.13;;;0.40;99.90;;;;;;5063257;28;20115;-55
2023/12/03 10:30:37;;;;;;;9.20;4.68;;;0.50;99.90;;;;;;5063092;28;20040;-58
2023/12/03 10:33:04;;;;;;;10.82;4.38;;;0.60;99.90;;;;;;5063032;28;20040;-50
2023/12/03 10:35:34;;;;;;;13.43;5.22;;;0.70;99.90;;;;;;5051654;28;20049;-59
2023/12/03 10:38:01;;;;;;;7.85;4.25;;;0.80;99.90;;;;;;5062647;28;20119;-60
2023/12/03 10:40:29;;;;;;;10.35;5.25;;;0.80;99.90;;;;;;5055615;28;20099;-57
2023/12/03 10:42:55;;;;;;;10.85;5.50;;;0.70;99.90;;;;;;5058217;28;20057;-53
2023/12/03 10:45:20;;;;;;;7.97;4.68;;;0.70;99.90;;;;;;5060419;28;20040;-57
2023/12/03 10:47:46;;;;;;;12.52;5.35;;;0.80;99.90;;;;;;5050789;28;20529;-54
2023/12/03 10:50:12;;;;;;;11.30;5.57;;;0.80;99.90;;;;;;5054416;28;20523;-57
2023/12/03 10:52:39;;;;;;;13.15;5.85;;;0.80;99.90;;;;;;5054325;28;20104;-55
2023/12/03 10:55:06;;;;;;;11.75;5.28;;;0.80;99.90;;;;;;5055832;28;20041;-60
2023/12/03 10:57:34;;;;;;;10.55;5.53;;;0.90;99.90;;;;;;5056426;28;20059;-61
2023/12/03 11:00:10;;;;;;;12.63;5.80;;;0.90;99.90;;;;;;5056968;28;20041;-54
2023/12/03 11:02:47;;;;;;;12.63;6.47;;;1.00;99.90;;;;;;5064355;28;20098;-62
2023/12/03 11:05:31;;;;;;;13.15;6.22;;;1.00;99.90;;;;;;5061157;28;20048;-56
2023/12/03 11:07:59;;;;;;;10.88;5.75;;;1.00;99.90;;;;;;5078950;28;20036;-60
2023/12/03 11:10:25;;;;;;;12.10;6.60;;;1.10;99.90;;;;;;5055133;28;20045;-59
2023/12/03 11:12:51;;;;;;;13.13;6.60;;;1.10;99.90;;;;;;5057304;28;20083;-57
2023/12/03 11:15:18;;;;;;;12.77;5.95;;;1.10;99.90;;;;;;5066392;28;20074;-55
2023/12/03 11:17:45;;;;;;;12.38;6.20;;;1.10;99.90;;;;;;5059776;28;20048;-54
2023/12/03 11:20:17;;;;;;;13.38;6.35;;;1.10;99.90;;;;;;5062169;28;20035;-58
2023/12/03 11:23:11;;;;;;;12.75;6.18;;;1.00;99.90;;;;;;5061724;28;20193;-59
2023/12/03 11:25:57;;;;;;;11.13;6.20;;;0.80;99.90;;;;;;5064210;28;20093;-59
2023/12/03 11:28:22;;;;;;;13.05;6.78;;;0.80;99.90;;;;;;5058145;28;20044;-58
2023/12/03 11:30:48;;;;;;;11.98;6.65;;;0.80;99.90;;;;;;5053091;28;20471;-53
2023/12/03 11:33:15;;;;;;;14.45;6.97;;;0.90;99.90;;;;;;5048798;28;20037;-59
2023/12/03 11:35:44;;;;;;;14.05;7.32;;;0.90;99.90;;;;;;5038936;28;20048;-59
2023/12/03 11:38:22;;;;;;;16.27;7.32;;;0.90;99.90;;;;;;5039184;28;20036;-59
2023/12/03 11:40:49;;;;;;;15.40;7.25;;;0.90;99.90;;;;;;5038618;28;20045;-56
2023/12/03 11:43:30;;;;;;;13.30;6.95;;;1.00;99.90;;;;;;5030117;28;20041;-57
2023/12/03 11:45:56;;;;;;;14.38;7.28;;;0.90;99.90;;;;;;5031051;28;20549;-57
2023/12/03 11:48:30;;;;;;;14.63;7.40;;;0.80;99.90;;;;;;5037040;28;20048;-57
2023/12/03 11:50:59;;;;;;;13.32;6.68;;;0.80;99.90;;;;;;5033940;28;20049;-58
2023/12/03 11:53:43;;;;;;;15.57;7.25;;;0.80;99.90;;;;;;5031099;28;20051;-55
2023/12/03 11:56:09;;;;;;;12.80;7.28;;;0.80;99.90;;;;;;5035182;28;20076;-54
2023/12/03 11:58:35;;;;;;;14.02;7.40;;;0.90;99.90;;;;;;5036843;28;20040;-59
2023/12/03 12:01:00;;;;;;;13.93;7.07;;;0.90;99.90;;;;;;5032656;28;20138;-54
2023/12/03 12:03:26;;;;;;;13.07;6.70;;;0.80;99.90;;;;;;5043615;28;20036;-58
2023/12/03 12:05:52;;;;;;;12.15;6.45;;;0.70;99.90;;;;;;5041327;28;20042;-57
2023/12/03 12:08:20;;;;;;;13.85;7.00;;;0.60;99.90;;;;;;5034735;28;20037;-56
2023/12/03 12:10:46;;;;;;;15.45;7.35;;;0.60;99.90;;;;;;5041802;28;20056;-56
2023/12/03 12:13:12;;;;;;;14.40;7.20;;;0.50;99.90;;;;;;5041539;28;20049;-60
2023/12/03 12:15:38;;;;;;;14.93;6.85;;;0.50;99.90;;;;;;5047804;28;20063;-59
2023/12/03 12:18:05;;;;;;;13.35;6.63;;;0.50;99.90;;;;;;5045000;28;20079;-54
2023/12/03 12:20:32;;;;;;;14.60;7.15;;;0.50;99.90;;;;;;5047315;28;20398;-60
2023/12/03 12:22:58;;;;;;;12.88;6.97;;;0.40;99.90;;;;;;5044908;28;20048;-60
2023/12/03 12:25:26;;;;;;;12.95;6.60;;;0.40;99.90;;;;;;5047402;28;20447;-54
2023/12/03 12:27:52;;;;;;;12.70;7.00;;;0.50;99.90;;;;;;5044580;28;20060;-51